sensor_id;sensor_type;location;lat;lon;timestamp;P1;durP1;ratioP1;P2;durP2;ratioP2
33794;SDS011;51430;52.242;21.118;2023-03-16T00:03:00;32.10;;;23.30;;
33794;SDS011;51430;52.242;21.118;2023-03-16T00:05:46;33.10;;;22.00;;
33794;SDS011;51430;52.242;21.118;2023-03-16T00:08:33;44.10;;;27.30;;
33794;SDS011;51430;52.242;21.118;2023-03-16T00:11:19;42.50;;;29.70;;
33794;SDS011;51430;52.242;21.118;2023-03-16T00:14:05;38.00;;;27.20;;
33794;SDS011;51430;52.242;21.118;2023-03-16T00:16:51;35.30;;;22.40;;
33794;SDS011;51430;52.242;21.118;2023-03-16T00:19:37;32.80;;;22.30;;
33794;SDS011;51430;52.242;21.118;2023-03-16T00:22:26;29.50;;;21.20;;
33794;SDS011;51430;52.242;21.118;2023-03-16T00:25:13;30.00;;;19.90;;
33794;SDS011;51430;52.242;21.118;2023-03-16T00:27:59;32.10;;;20.10;;
33794;SDS011;51430;52.242;21.118;2023-03-16T00:30:47;28.30;;;19.70;;
33794;SDS011;51430;52.242;21.118;2023-03-16T00:33:33;30.00;;;19.50;;
33794;SDS011;51430;52.242;21.118;2023-03-16T00:36:19;29.10;;;19.30;;
33794;SDS011;51430;52.242;21.118;2023-03-16T00:39:06;28.50;;;19.60;;
33794;SDS011;51430;52.242;21.118;2023-03-16T00:41:52;30.10;;;20.50;;
33794;SDS011;51430;52.242;21.118;2023-03-16T00:44:42;32.20;;;20.50;;
33794;SDS011;51430;52.242;21.118;2023-03-16T00:47:29;32.10;;;20.90;;
33794;SDS011;51430;52.242;21.118;2023-03-16T00:50:16;31.90;;;21.30;;
33794;SDS011;51430;52.242;21.118;2023-03-16T00:53:02;33.80;;;21.10;;
33794;SDS011;51430;52.242;21.118;2023-03-16T00:55:47;32.90;;;21.90;;
33794;SDS011;51430;52.242;21.118;2023-03-16T00:58:33;31.20;;;21.00;;
33794;SDS011;51430;52.242;21.118;2023-03-16T01:01:39;29.30;;;17.40;;
33794;SDS011;51430;52.242;21.118;2023-03-16T01:04:25;34.10;;;21.60;;
33794;SDS011;51430;52.242;21.118;2023-03-16T01:07:13;32.60;;;21.20;;
33794;SDS011;51430;52.242;21.118;2023-03-16T01:10:00;33.80;;;21.60;;
33794;SDS011;51430;52.242;21.118;2023-03-16T01:12:48;33.30;;;21.00;;
33794;SDS011;51430;52.242;21.118;2023-03-16T01:15:35;31.40;;;21.30;;
33794;SDS011;51430;52.242;21.118;2023-03-16T01:18:21;32.40;;;21.50;;
33794;SDS011;51430;52.242;21.118;2023-03-16T01:21:09;36.40;;;22.40;;
33794;SDS011;51430;52.242;21.118;2023-03-16T01:23:58;36.20;;;22.80;;
33794;SDS011;51430;52.242;21.118;2023-03-16T01:26:45;32.20;;;21.60;;
33794;SDS011;51430;52.242;21.118;2023-03-16T01:29:32;33.60;;;22.40;;
33794;SDS011;51430;52.242;21.118;2023-03-16T01:32:20;33.80;;;21.80;;
33794;SDS011;51430;52.242;21.118;2023-03-16T01:35:06;31.70;;;22.60;;
33794;SDS011;51430;52.242;21.118;2023-03-16T01:37:54;35.90;;;21.90;;
33794;SDS011;51430;52.242;21.118;2023-03-16T01:40:41;31.00;;;21.10;;
33794;SDS011;51430;52.242;21.118;2023-03-16T01:43:30;32.50;;;23.30;;
33794;SDS011;51430;52.242;21.118;2023-03-16T01:46:20;33.50;;;22.60;;
33794;SDS011;51430;52.242;21.118;2023-03-16T01:52:24;31.20;;;20.20;;
33794;SDS011;51430;52.242;21.118;2023-03-16T01:55:14;32.00;;;20.80;;
33794;SDS011;51430;52.242;21.118;2023-03-16T01:58:00;28.00;;;19.40;;
33794;SDS011;51430;52.242;21.118;2023-03-16T02:00:47;32.60;;;19.80;;
33794;SDS011;51430;52.242;21.118;2023-03-16T02:03:36;28.50;;;19.50;;
33794;SDS011;51430;52.242;21.118;2023-03-16T02:06:24;29.10;;;19.20;;
33794;SDS011;51430;52.242;21.118;2023-03-16T02:13:37;29.40;;;18.70;;
33794;SDS011;51430;52.242;21.118;2023-03-16T02:16:23;29.60;;;19.10;;
33794;SDS011;51430;52.242;21.118;2023-03-16T02:19:11;30.60;;;18.60;;
33794;SDS011;51430;52.242;21.118;2023-03-16T02:22:06;27.80;;;18.80;;
33794;SDS011;51430;52.242;21.118;2023-03-16T02:24:53;29.60;;;18.20;;
33794;SDS011;51430;52.242;21.118;2023-03-16T02:30:27;28.20;;;19.00;;
33794;SDS011;51430;52.242;21.118;2023-03-16T02:33:15;29.60;;;19.80;;
33794;SDS011;51430;52.242;21.118;2023-03-16T02:40:27;28.70;;;19.40;;
33794;SDS011;51430;52.242;21.118;2023-03-16T02:43:18;29.70;;;19.40;;
33794;SDS011;51430;52.242;21.118;2023-03-16T02:46:07;30.50;;;19.50;;
33794;SDS011;51430;52.242;21.118;2023-03-16T02:48:59;32.10;;;20.20;;
33794;SDS011;51430;52.242;21.118;2023-03-16T02:52:10;28.50;;;19.10;;
33794;SDS011;51430;52.242;21.118;2023-03-16T02:54:57;28.90;;;19.10;;
33794;SDS011;51430;52.242;21.118;2023-03-16T02:57:44;27.80;;;18.20;;
33794;SDS011;51430;52.242;21.118;2023-03-16T03:00:30;27.00;;;17.70;;
33794;SDS011;51430;52.242;21.118;2023-03-16T03:03:17;28.90;;;19.20;;
33794;SDS011;51430;52.242;21.118;2023-03-16T03:06:04;27.40;;;17.50;;
33794;SDS011;51430;52.242;21.118;2023-03-16T03:08:51;30.80;;;18.90;;
33794;SDS011;51430;52.242;21.118;2023-03-16T03:11:37;28.50;;;17.90;;
33794;SDS011;51430;52.242;21.118;2023-03-16T03:14:24;27.60;;;17.70;;
33794;SDS011;51430;52.242;21.118;2023-03-16T03:17:11;26.60;;;17.20;;
33794;SDS011;51430;52.242;21.118;2023-03-16T03:19:59;27.60;;;18.10;;
33794;SDS011;51430;52.242;21.118;2023-03-16T03:22:48;27.10;;;17.50;;
33794;SDS011;51430;52.242;21.118;2023-03-16T03:25:37;28.50;;;17.60;;
33794;SDS011;51430;52.242;21.118;2023-03-16T03:28:24;24.90;;;17.30;;
33794;SDS011;51430;52.242;21.118;2023-03-16T03:31:15;26.30;;;16.80;;
33794;SDS011;51430;52.242;21.118;2023-03-16T03:34:03;27.00;;;17.50;;
33794;SDS011;51430;52.242;21.118;2023-03-16T03:36:51;25.10;;;15.70;;
33794;SDS011;51430;52.242;21.118;2023-03-16T03:39:39;26.30;;;15.00;;
33794;SDS011;51430;52.242;21.118;2023-03-16T03:42:25;25.20;;;15.20;;
33794;SDS011;51430;52.242;21.118;2023-03-16T03:45:14;22.30;;;14.20;;
33794;SDS011;51430;52.242;21.118;2023-03-16T03:48:02;24.80;;;15.20;;
33794;SDS011;51430;52.242;21.118;2023-03-16T03:50:48;25.00;;;15.40;;
33794;SDS011;51430;52.242;21.118;2023-03-16T03:53:36;26.00;;;15.30;;
33794;SDS011;51430;52.242;21.118;2023-03-16T03:56:23;22.00;;;14.70;;
33794;SDS011;51430;52.242;21.118;2023-03-16T03:59:10;24.10;;;15.10;;
33794;SDS011;51430;52.242;21.118;2023-03-16T04:01:57;22.10;;;14.80;;
33794;SDS011;51430;52.242;21.118;2023-03-16T04:04:44;24.30;;;15.10;;
33794;SDS011;51430;52.242;21.118;2023-03-16T04:07:30;24.20;;;14.40;;
33794;SDS011;51430;52.242;21.118;2023-03-16T04:10:17;23.50;;;14.50;;
33794;SDS011;51430;52.242;21.118;2023-03-16T04:13:04;25.00;;;14.70;;
33794;SDS011;51430;52.242;21.118;2023-03-16T04:15:57;23.10;;;14.60;;
33794;SDS011;51430;52.242;21.118;2023-03-16T04:18:45;24.50;;;14.90;;
33794;SDS011;51430;52.242;21.118;2023-03-16T04:21:31;25.90;;;15.10;;
33794;SDS011;51430;52.242;21.118;2023-03-16T04:24:19;21.80;;;14.20;;
33794;SDS011;51430;52.242;21.118;2023-03-16T04:27:08;22.60;;;14.80;;
33794;SDS011;51430;52.242;21.118;2023-03-16T04:29:57;24.30;;;15.00;;
33794;SDS011;51430;52.242;21.118;2023-03-16T04:32:45;25.40;;;15.20;;
33794;SDS011;51430;52.242;21.118;2023-03-16T04:35:34;24.80;;;14.50;;
33794;SDS011;51430;52.242;21.118;2023-03-16T04:38:21;24.90;;;15.00;;
33794;SDS011;51430;52.242;21.118;2023-03-16T04:41:08;26.60;;;15.00;;
33794;SDS011;51430;52.242;21.118;2023-03-16T04:43:56;22.30;;;14.50;;
33794;SDS011;51430;52.242;21.118;2023-03-16T04:46:44;24.80;;;16.00;;
33794;SDS011;51430;52.242;21.118;2023-03-16T04:49:31;23.90;;;15.40;;
33794;SDS011;51430;52.242;21.118;2023-03-16T04:52:17;24.70;;;15.50;;
33794;SDS011;51430;52.242;21.118;2023-03-16T04:55:04;22.70;;;15.60;;
33794;SDS011;51430;52.242;21.118;2023-03-16T04:57:51;23.40;;;15.70;;
33794;SDS011;51430;52.242;21.118;2023-03-16T05:00:38;23.10;;;15.70;;
33794;SDS011;51430;52.242;21.118;2023-03-16T05:03:26;26.10;;;16.30;;
33794;SDS011;51430;52.242;21.118;2023-03-16T05:06:13;23.80;;;16.00;;
33794;SDS011;51430;52.242;21.118;2023-03-16T05:08:59;26.50;;;15.90;;
33794;SDS011;51430;52.242;21.118;2023-03-16T05:11:46;25.40;;;15.90;;
33794;SDS011;51430;52.242;21.118;2023-03-16T05:14:33;25.50;;;15.80;;
33794;SDS011;51430;52.242;21.118;2023-03-16T05:17:21;22.50;;;15.30;;
33794;SDS011;51430;52.242;21.118;2023-03-16T05:20:09;24.70;;;14.50;;
33794;SDS011;51430;52.242;21.118;2023-03-16T05:23:01;24.40;;;15.20;;
33794;SDS011;51430;52.242;21.118;2023-03-16T05:25:48;21.50;;;15.40;;
33794;SDS011;51430;52.242;21.118;2023-03-16T05:28:35;21.90;;;14.80;;
33794;SDS011;51430;52.242;21.118;2023-03-16T05:31:23;23.20;;;15.00;;
33794;SDS011;51430;52.242;21.118;2023-03-16T05:34:11;22.30;;;14.80;;
33794;SDS011;51430;52.242;21.118;2023-03-16T05:36:58;21.50;;;14.40;;
33794;SDS011;51430;52.242;21.118;2023-03-16T05:39:47;18.70;;;13.40;;
33794;SDS011;51430;52.242;21.118;2023-03-16T05:42:33;19.80;;;13.20;;
33794;SDS011;51430;52.242;21.118;2023-03-16T05:45:20;18.60;;;12.90;;
33794;SDS011;51430;52.242;21.118;2023-03-16T05:48:07;18.90;;;12.50;;
33794;SDS011;51430;52.242;21.118;2023-03-16T05:50:54;17.20;;;11.80;;
33794;SDS011;51430;52.242;21.118;2023-03-16T05:53:41;15.60;;;11.10;;
33794;SDS011;51430;52.242;21.118;2023-03-16T05:56:30;15.40;;;11.20;;
33794;SDS011;51430;52.242;21.118;2023-03-16T05:59:16;15.30;;;10.30;;
33794;SDS011;51430;52.242;21.118;2023-03-16T06:02:03;16.80;;;10.40;;
33794;SDS011;51430;52.242;21.118;2023-03-16T06:04:50;14.80;;;9.90;;
33794;SDS011;51430;52.242;21.118;2023-03-16T06:07:36;16.70;;;9.70;;
33794;SDS011;51430;52.242;21.118;2023-03-16T06:10:26;15.70;;;10.10;;
33794;SDS011;51430;52.242;21.118;2023-03-16T06:13:13;13.40;;;9.20;;
33794;SDS011;51430;52.242;21.118;2023-03-16T06:16:00;12.50;;;9.00;;
33794;SDS011;51430;52.242;21.118;2023-03-16T06:18:48;13.00;;;9.20;;
33794;SDS011;51430;52.242;21.118;2023-03-16T06:21:34;14.90;;;9.50;;
33794;SDS011;51430;52.242;21.118;2023-03-16T06:24:22;14.00;;;9.40;;
33794;SDS011;51430;52.242;21.118;2023-03-16T06:27:08;14.20;;;9.50;;
33794;SDS011;51430;52.242;21.118;2023-03-16T06:29:56;15.70;;;9.40;;
33794;SDS011;51430;52.242;21.118;2023-03-16T06:32:43;13.60;;;9.20;;
33794;SDS011;51430;52.242;21.118;2023-03-16T06:35:32;12.70;;;9.10;;
33794;SDS011;51430;52.242;21.118;2023-03-16T06:38:19;11.50;;;8.80;;
33794;SDS011;51430;52.242;21.118;2023-03-16T06:41:06;14.50;;;9.10;;
33794;SDS011;51430;52.242;21.118;2023-03-16T06:43:53;12.90;;;8.60;;
33794;SDS011;51430;52.242;21.118;2023-03-16T06:46:40;13.60;;;8.90;;
33794;SDS011;51430;52.242;21.118;2023-03-16T06:49:27;13.40;;;9.60;;
33794;SDS011;51430;52.242;21.118;2023-03-16T06:52:13;17.20;;;9.90;;
33794;SDS011;51430;52.242;21.118;2023-03-16T06:55:01;13.40;;;9.30;;
33794;SDS011;51430;52.242;21.118;2023-03-16T06:57:49;14.80;;;9.30;;
33794;SDS011;51430;52.242;21.118;2023-03-16T07:00:36;15.20;;;9.80;;
33794;SDS011;51430;52.242;21.118;2023-03-16T07:03:25;14.50;;;9.30;;
33794;SDS011;51430;52.242;21.118;2023-03-16T07:06:20;14.00;;;9.20;;
33794;SDS011;51430;52.242;21.118;2023-03-16T07:09:08;15.70;;;9.00;;
33794;SDS011;51430;52.242;21.118;2023-03-16T07:12:11;13.80;;;9.50;;
33794;SDS011;51430;52.242;21.118;2023-03-16T07:14:59;13.60;;;9.10;;
33794;SDS011;51430;52.242;21.118;2023-03-16T07:17:47;13.70;;;8.90;;
33794;SDS011;51430;52.242;21.118;2023-03-16T07:20:35;12.30;;;8.80;;
33794;SDS011;51430;52.242;21.118;2023-03-16T07:23:24;15.50;;;8.70;;
33794;SDS011;51430;52.242;21.118;2023-03-16T07:26:13;16.20;;;8.90;;
33794;SDS011;51430;52.242;21.118;2023-03-16T07:29:02;16.30;;;9.10;;
33794;SDS011;51430;52.242;21.118;2023-03-16T07:31:53;14.30;;;9.30;;
33794;SDS011;51430;52.242;21.118;2023-03-16T07:34:43;13.00;;;8.70;;
33794;SDS011;51430;52.242;21.118;2023-03-16T07:37:31;13.80;;;8.30;;
33794;SDS011;51430;52.242;21.118;2023-03-16T07:40:20;15.10;;;9.30;;
33794;SDS011;51430;52.242;21.118;2023-03-16T07:43:07;14.80;;;9.90;;
33794;SDS011;51430;52.242;21.118;2023-03-16T07:45:55;13.90;;;9.90;;
33794;SDS011;51430;52.242;21.118;2023-03-16T07:48:50;14.30;;;10.30;;
33794;SDS011;51430;52.242;21.118;2023-03-16T07:51:39;13.40;;;9.70;;
33794;SDS011;51430;52.242;21.118;2023-03-16T07:54:40;15.20;;;10.60;;
33794;SDS011;51430;52.242;21.118;2023-03-16T07:57:31;12.40;;;8.50;;
33794;SDS011;51430;52.242;21.118;2023-03-16T08:00:22;12.60;;;7.50;;
33794;SDS011;51430;52.242;21.118;2023-03-16T08:03:12;11.50;;;7.60;;
33794;SDS011;51430;52.242;21.118;2023-03-16T08:06:18;10.50;;;7.30;;
33794;SDS011;51430;52.242;21.118;2023-03-16T08:09:05;11.50;;;8.20;;
33794;SDS011;51430;52.242;21.118;2023-03-16T08:11:56;12.60;;;8.40;;
33794;SDS011;51430;52.242;21.118;2023-03-16T08:14:45;13.70;;;9.70;;
33794;SDS011;51430;52.242;21.118;2023-03-16T08:17:33;14.60;;;9.50;;
33794;SDS011;51430;52.242;21.118;2023-03-16T08:20:23;10.80;;;7.90;;
33794;SDS011;51430;52.242;21.118;2023-03-16T08:23:11;10.60;;;6.70;;
33794;SDS011;51430;52.242;21.118;2023-03-16T08:25:59;9.90;;;6.10;;
33794;SDS011;51430;52.242;21.118;2023-03-16T08:32:06;13.40;;;8.60;;
33794;SDS011;51430;52.242;21.118;2023-03-16T08:35:02;11.50;;;7.80;;
33794;SDS011;51430;52.242;21.118;2023-03-16T08:37:55;11.20;;;7.60;;
33794;SDS011;51430;52.242;21.118;2023-03-16T08:40:50;10.10;;;6.00;;
33794;SDS011;51430;52.242;21.118;2023-03-16T08:43:39;9.50;;;6.60;;
33794;SDS011;51430;52.242;21.118;2023-03-16T08:46:30;12.10;;;7.50;;
33794;SDS011;51430;52.242;21.118;2023-03-16T08:49:22;10.50;;;7.60;;
33794;SDS011;51430;52.242;21.118;2023-03-16T08:52:10;9.60;;;7.10;;
33794;SDS011;51430;52.242;21.118;2023-03-16T08:54:58;11.40;;;8.40;;
33794;SDS011;51430;52.242;21.118;2023-03-16T08:57:50;10.10;;;7.60;;
33794;SDS011;51430;52.242;21.118;2023-03-16T09:00:41;10.10;;;6.70;;
33794;SDS011;51430;52.242;21.118;2023-03-16T09:03:35;9.90;;;6.00;;
33794;SDS011;51430;52.242;21.118;2023-03-16T09:06:25;11.70;;;7.40;;
33794;SDS011;51430;52.242;21.118;2023-03-16T09:09:13;10.00;;;6.80;;
33794;SDS011;51430;52.242;21.118;2023-03-16T09:12:09;12.10;;;8.40;;
33794;SDS011;51430;52.242;21.118;2023-03-16T09:15:00;11.30;;;8.60;;
33794;SDS011;51430;52.242;21.118;2023-03-16T09:17:55;11.20;;;8.10;;
33794;SDS011;51430;52.242;21.118;2023-03-16T09:20:46;12.40;;;8.20;;
33794;SDS011;51430;52.242;21.118;2023-03-16T09:23:35;12.90;;;7.80;;
33794;SDS011;51430;52.242;21.118;2023-03-16T09:37:14;13.30;;;6.40;;
33794;SDS011;51430;52.242;21.118;2023-03-16T09:40:05;10.90;;;7.20;;
33794;SDS011;51430;52.242;21.118;2023-03-16T09:43:38;10.80;;;7.70;;
33794;SDS011;51430;52.242;21.118;2023-03-16T09:46:46;10.20;;;6.30;;
33794;SDS011;51430;52.242;21.118;2023-03-16T09:49:37;9.00;;;6.10;;
33794;SDS011;51430;52.242;21.118;2023-03-16T09:58:24;11.20;;;7.70;;
33794;SDS011;51430;52.242;21.118;2023-03-16T10:13:56;8.30;;;4.90;;
33794;SDS011;51430;52.242;21.118;2023-03-16T10:16:54;9.80;;;4.90;;
33794;SDS011;51430;52.242;21.118;2023-03-16T10:19:55;9.70;;;5.10;;
33794;SDS011;51430;52.242;21.118;2023-03-16T10:22:48;10.30;;;5.60;;
33794;SDS011;51430;52.242;21.118;2023-03-16T10:25:43;11.10;;;6.60;;
33794;SDS011;51430;52.242;21.118;2023-03-16T10:28:46;13.50;;;7.50;;
33794;SDS011;51430;52.242;21.118;2023-03-16T10:31:38;9.40;;;5.70;;
33794;SDS011;51430;52.242;21.118;2023-03-16T10:34:28;8.50;;;5.40;;
33794;SDS011;51430;52.242;21.118;2023-03-16T10:37:16;8.80;;;4.40;;
33794;SDS011;51430;52.242;21.118;2023-03-16T10:40:07;8.80;;;4.60;;
33794;SDS011;51430;52.242;21.118;2023-03-16T10:43:04;8.00;;;4.60;;
33794;SDS011;51430;52.242;21.118;2023-03-16T10:46:02;7.40;;;4.00;;
33794;SDS011;51430;52.242;21.118;2023-03-16T10:48:52;5.50;;;3.30;;
33794;SDS011;51430;52.242;21.118;2023-03-16T10:51:47;5.30;;;3.40;;
33794;SDS011;51430;52.242;21.118;2023-03-16T10:54:36;5.90;;;3.60;;
33794;SDS011;51430;52.242;21.118;2023-03-16T10:57:30;5.50;;;3.30;;
33794;SDS011;51430;52.242;21.118;2023-03-16T11:00:35;6.40;;;3.20;;
33794;SDS011;51430;52.242;21.118;2023-03-16T11:03:28;4.80;;;3.50;;
33794;SDS011;51430;52.242;21.118;2023-03-16T11:10:52;5.90;;;4.40;;
33794;SDS011;51430;52.242;21.118;2023-03-16T11:13:47;6.70;;;5.00;;
33794;SDS011;51430;52.242;21.118;2023-03-16T11:33:17;10.00;;;5.40;;
33794;SDS011;51430;52.242;21.118;2023-03-16T11:39:30;9.00;;;5.20;;
33794;SDS011;51430;52.242;21.118;2023-03-16T11:45:49;12.60;;;5.20;;
33794;SDS011;51430;52.242;21.118;2023-03-16T12:05:22;12.80;;;5.80;;
33794;SDS011;51430;52.242;21.118;2023-03-16T12:11:13;10.40;;;5.80;;
33794;SDS011;51430;52.242;21.118;2023-03-16T12:14:17;14.10;;;5.80;;
33794;SDS011;51430;52.242;21.118;2023-03-16T12:17:15;14.10;;;5.60;;
33794;SDS011;51430;52.242;21.118;2023-03-16T12:20:12;12.00;;;5.50;;
33794;SDS011;51430;52.242;21.118;2023-03-16T12:23:28;13.30;;;5.70;;
33794;SDS011;51430;52.242;21.118;2023-03-16T12:26:25;11.80;;;5.60;;
33794;SDS011;51430;52.242;21.118;2023-03-16T12:32:24;12.80;;;6.10;;
33794;SDS011;51430;52.242;21.118;2023-03-16T12:35:43;10.60;;;4.90;;
33794;SDS011;51430;52.242;21.118;2023-03-16T12:44:21;11.20;;;5.30;;
33794;SDS011;51430;52.242;21.118;2023-03-16T12:50:32;12.30;;;5.20;;
33794;SDS011;51430;52.242;21.118;2023-03-16T12:53:28;9.40;;;4.80;;
33794;SDS011;51430;52.242;21.118;2023-03-16T12:56:31;11.30;;;5.30;;
33794;SDS011;51430;52.242;21.118;2023-03-16T12:59:38;10.60;;;5.30;;
33794;SDS011;51430;52.242;21.118;2023-03-16T13:02:31;11.00;;;5.80;;
33794;SDS011;51430;52.242;21.118;2023-03-16T13:05:32;11.40;;;5.40;;
33794;SDS011;51430;52.242;21.118;2023-03-16T13:08:22;11.50;;;4.80;;
33794;SDS011;51430;52.242;21.118;2023-03-16T13:11:12;12.50;;;4.70;;
33794;SDS011;51430;52.242;21.118;2023-03-16T13:14:04;10.40;;;4.90;;
33794;SDS011;51430;52.242;21.118;2023-03-16T13:17:01;10.90;;;4.70;;
33794;SDS011;51430;52.242;21.118;2023-03-16T13:23:28;12.80;;;4.50;;
33794;SDS011;51430;52.242;21.118;2023-03-16T13:26:46;8.10;;;4.10;;
33794;SDS011;51430;52.242;21.118;2023-03-16T13:29:51;9.20;;;4.30;;
33794;SDS011;51430;52.242;21.118;2023-03-16T13:32:55;11.90;;;5.30;;
33794;SDS011;51430;52.242;21.118;2023-03-16T13:36:01;10.80;;;4.80;;
33794;SDS011;51430;52.242;21.118;2023-03-16T13:39:01;12.50;;;4.90;;
33794;SDS011;51430;52.242;21.118;2023-03-16T13:42:22;11.80;;;4.20;;
33794;SDS011;51430;52.242;21.118;2023-03-16T13:45:26;12.40;;;5.00;;
33794;SDS011;51430;52.242;21.118;2023-03-16T13:48:24;13.20;;;4.80;;
33794;SDS011;51430;52.242;21.118;2023-03-16T13:51:18;9.70;;;4.30;;
33794;SDS011;51430;52.242;21.118;2023-03-16T13:54:23;10.00;;;4.40;;
33794;SDS011;51430;52.242;21.118;2023-03-16T13:57:14;9.30;;;4.20;;
33794;SDS011;51430;52.242;21.118;2023-03-16T14:03:10;12.70;;;4.40;;
33794;SDS011;51430;52.242;21.118;2023-03-16T14:06:02;11.00;;;4.30;;
33794;SDS011;51430;52.242;21.118;2023-03-16T14:08:52;10.30;;;4.10;;
33794;SDS011;51430;52.242;21.118;2023-03-16T14:11:43;8.80;;;3.80;;
33794;SDS011;51430;52.242;21.118;2023-03-16T14:14:37;9.10;;;4.10;;
33794;SDS011;51430;52.242;21.118;2023-03-16T14:17:27;9.90;;;4.10;;
33794;SDS011;51430;52.242;21.118;2023-03-16T14:20:23;9.50;;;4.10;;
33794;SDS011;51430;52.242;21.118;2023-03-16T14:23:19;10.90;;;4.30;;
33794;SDS011;51430;52.242;21.118;2023-03-16T14:26:14;8.60;;;4.40;;
33794;SDS011;51430;52.242;21.118;2023-03-16T14:29:05;11.20;;;4.80;;
33794;SDS011;51430;52.242;21.118;2023-03-16T14:32:01;10.70;;;4.40;;
33794;SDS011;51430;52.242;21.118;2023-03-16T14:34:49;9.60;;;4.50;;
33794;SDS011;51430;52.242;21.118;2023-03-16T14:37:36;10.40;;;4.50;;
33794;SDS011;51430;52.242;21.118;2023-03-16T14:40:27;10.90;;;4.90;;
33794;SDS011;51430;52.242;21.118;2023-03-16T14:43:17;12.10;;;4.90;;
33794;SDS011;51430;52.242;21.118;2023-03-16T14:46:06;13.30;;;4.60;;
33794;SDS011;51430;52.242;21.118;2023-03-16T14:55:18;11.20;;;4.60;;
33794;SDS011;51430;52.242;21.118;2023-03-16T14:58:07;15.40;;;5.00;;
33794;SDS011;51430;52.242;21.118;2023-03-16T15:00:55;10.50;;;4.30;;
33794;SDS011;51430;52.242;21.118;2023-03-16T15:03:42;10.90;;;4.50;;
33794;SDS011;51430;52.242;21.118;2023-03-16T15:06:30;11.40;;;4.50;;
33794;SDS011;51430;52.242;21.118;2023-03-16T15:12:32;10.90;;;4.60;;
33794;SDS011;51430;52.242;21.118;2023-03-16T15:15:21;11.00;;;4.60;;
33794;SDS011;51430;52.242;21.118;2023-03-16T15:22:36;10.90;;;3.80;;
33794;SDS011;51430;52.242;21.118;2023-03-16T15:32:10;7.90;;;3.50;;
33794;SDS011;51430;52.242;21.118;2023-03-16T15:34:59;9.80;;;3.80;;
33794;SDS011;51430;52.242;21.118;2023-03-16T15:37:47;6.70;;;3.40;;
33794;SDS011;51430;52.242;21.118;2023-03-16T15:40:36;10.30;;;3.80;;
33794;SDS011;51430;52.242;21.118;2023-03-16T15:43:26;8.00;;;3.40;;
33794;SDS011;51430;52.242;21.118;2023-03-16T15:50:22;10.30;;;3.40;;
33794;SDS011;51430;52.242;21.118;2023-03-16T15:53:13;9.50;;;3.60;;
33794;SDS011;51430;52.242;21.118;2023-03-16T15:56:17;10.00;;;3.70;;
33794;SDS011;51430;52.242;21.118;2023-03-16T15:59:13;11.40;;;4.00;;
33794;SDS011;51430;52.242;21.118;2023-03-16T16:02:07;10.50;;;4.00;;
33794;SDS011;51430;52.242;21.118;2023-03-16T16:05:11;8.30;;;3.80;;
33794;SDS011;51430;52.242;21.118;2023-03-16T16:07:59;8.50;;;3.70;;
33794;SDS011;51430;52.242;21.118;2023-03-16T16:10:46;10.50;;;3.90;;
33794;SDS011;51430;52.242;21.118;2023-03-16T16:13:35;8.50;;;3.70;;
33794;SDS011;51430;52.242;21.118;2023-03-16T16:16:30;10.30;;;4.30;;
33794;SDS011;51430;52.242;21.118;2023-03-16T16:19:19;7.70;;;3.30;;
33794;SDS011;51430;52.242;21.118;2023-03-16T16:22:10;7.20;;;3.60;;
33794;SDS011;51430;52.242;21.118;2023-03-16T16:24:58;10.80;;;4.30;;
33794;SDS011;51430;52.242;21.118;2023-03-16T16:27:45;9.10;;;4.30;;
33794;SDS011;51430;52.242;21.118;2023-03-16T16:30:34;10.70;;;4.40;;
33794;SDS011;51430;52.242;21.118;2023-03-16T16:33:25;9.80;;;4.90;;
33794;SDS011;51430;52.242;21.118;2023-03-16T16:36:16;10.00;;;4.40;;
33794;SDS011;51430;52.242;21.118;2023-03-16T16:39:06;11.50;;;4.70;;
33794;SDS011;51430;52.242;21.118;2023-03-16T16:41:53;12.80;;;5.20;;
33794;SDS011;51430;52.242;21.118;2023-03-16T16:44:45;12.50;;;5.30;;
33794;SDS011;51430;52.242;21.118;2023-03-16T16:47:31;14.00;;;6.50;;
33794;SDS011;51430;52.242;21.118;2023-03-16T16:50:19;15.00;;;6.80;;
33794;SDS011;51430;52.242;21.118;2023-03-16T16:53:13;13.10;;;5.90;;
33794;SDS011;51430;52.242;21.118;2023-03-16T16:56:10;12.40;;;5.70;;
33794;SDS011;51430;52.242;21.118;2023-03-16T16:59:00;9.80;;;5.60;;
33794;SDS011;51430;52.242;21.118;2023-03-16T17:01:52;11.60;;;5.40;;
33794;SDS011;51430;52.242;21.118;2023-03-16T17:04:42;10.20;;;5.40;;
33794;SDS011;51430;52.242;21.118;2023-03-16T17:07:29;11.20;;;5.60;;
33794;SDS011;51430;52.242;21.118;2023-03-16T17:10:21;13.00;;;5.60;;
33794;SDS011;51430;52.242;21.118;2023-03-16T17:13:54;14.30;;;5.60;;
33794;SDS011;51430;52.242;21.118;2023-03-16T17:16:24;10.60;;;5.40;;
33794;SDS011;51430;52.242;21.118;2023-03-16T17:19:15;13.70;;;6.40;;
33794;SDS011;51430;52.242;21.118;2023-03-16T17:22:05;12.30;;;6.00;;
33794;SDS011;51430;52.242;21.118;2023-03-16T17:25:10;19.90;;;8.30;;
33794;SDS011;51430;52.242;21.118;2023-03-16T17:27:57;13.40;;;7.20;;
33794;SDS011;51430;52.242;21.118;2023-03-16T17:30:44;16.20;;;7.40;;
33794;SDS011;51430;52.242;21.118;2023-03-16T17:33:33;13.30;;;7.00;;
33794;SDS011;51430;52.242;21.118;2023-03-16T17:36:20;13.20;;;7.30;;
33794;SDS011;51430;52.242;21.118;2023-03-16T17:39:15;12.40;;;7.10;;
33794;SDS011;51430;52.242;21.118;2023-03-16T17:42:11;12.10;;;7.10;;
33794;SDS011;51430;52.242;21.118;2023-03-16T17:44:59;14.90;;;7.50;;
33794;SDS011;51430;52.242;21.118;2023-03-16T17:47:47;15.80;;;7.40;;
33794;SDS011;51430;52.242;21.118;2023-03-16T17:50:35;11.30;;;7.70;;
33794;SDS011;51430;52.242;21.118;2023-03-16T17:53:25;12.60;;;7.50;;
33794;SDS011;51430;52.242;21.118;2023-03-16T17:56:19;11.60;;;7.60;;
33794;SDS011;51430;52.242;21.118;2023-03-16T17:59:15;14.40;;;8.20;;
33794;SDS011;51430;52.242;21.118;2023-03-16T18:14:41;15.40;;;8.30;;
33794;SDS011;51430;52.242;21.118;2023-03-16T18:17:29;14.90;;;9.40;;
33794;SDS011;51430;52.242;21.118;2023-03-16T18:20:20;15.50;;;10.10;;
33794;SDS011;51430;52.242;21.118;2023-03-16T18:23:11;15.70;;;9.70;;
33794;SDS011;51430;52.242;21.118;2023-03-16T18:26:01;13.40;;;8.20;;
33794;SDS011;51430;52.242;21.118;2023-03-16T18:28:49;14.50;;;9.20;;
33794;SDS011;51430;52.242;21.118;2023-03-16T18:31:38;15.90;;;7.20;;
33794;SDS011;51430;52.242;21.118;2023-03-16T18:34:27;13.00;;;7.50;;
33794;SDS011;51430;52.242;21.118;2023-03-16T18:37:20;18.00;;;8.20;;
33794;SDS011;51430;52.242;21.118;2023-03-16T18:40:09;14.40;;;8.10;;
33794;SDS011;51430;52.242;21.118;2023-03-16T18:42:58;16.00;;;9.80;;
33794;SDS011;51430;52.242;21.118;2023-03-16T18:45:45;14.10;;;7.90;;
33794;SDS011;51430;52.242;21.118;2023-03-16T18:48:33;12.20;;;7.70;;
33794;SDS011;51430;52.242;21.118;2023-03-16T18:51:28;10.60;;;7.40;;
33794;SDS011;51430;52.242;21.118;2023-03-16T18:54:24;14.10;;;7.30;;
33794;SDS011;51430;52.242;21.118;2023-03-16T18:57:15;14.20;;;7.70;;
33794;SDS011;51430;52.242;21.118;2023-03-16T19:00:04;14.60;;;7.60;;
33794;SDS011;51430;52.242;21.118;2023-03-16T19:02:52;14.10;;;7.60;;
33794;SDS011;51430;52.242;21.118;2023-03-16T19:05:44;11.20;;;7.40;;
33794;SDS011;51430;52.242;21.118;2023-03-16T19:08:35;12.10;;;7.40;;